Time;durP1;ratioP1;P1;durP2;ratioP2;P2;SDS_P1;SDS_P2;PMS_P1;PMS_P2;Temp;Humidity;BMP_temperature;BMP_pressure;BME280_temperature;BME280_humidity;BME280_pressure;Samples;Min_cycle;Max_cycle;Signal;HPM_P1;HPM_P2
2020/12/22 00:00:41;;;;;;;129.87;54.18;;;;;;;-2.29;75.10;97877.45;1822119;76;25775;-85
2020/12/22 00:03:10;;;;;;;115.97;48.63;;;;;;;-2.29;75.11;97882.74;1833306;77;26150;-85
2020/12/22 00:05:37;;;;;;;119.53;51.20;;;;;;;-2.30;75.12;97879.77;1800047;77;25722;-85
2020/12/22 00:08:13;;;;;;;121.10;51.85;;;;;;;-2.32;75.13;97883.00;1830501;77;25703;-85
2020/12/22 00:10:40;;;;;;;123.10;52.80;;;;;;;-2.30;75.21;97880.61;1800139;77;26722;-85
2020/12/22 00:13:07;;;;;;;121.55;52.95;;;;;;;-2.26;75.12;97879.86;1800095;77;26327;-85
2020/12/22 00:15:35;;;;;;;123.25;51.88;;;;;;;-2.26;75.08;97885.16;1833019;76;27547;-84
2020/12/22 00:18:02;;;;;;;125.80;50.33;;;;;;;-2.26;75.03;97884.67;1825715;77;25668;-85
2020/12/22 00:20:29;;;;;;;111.90;47.08;;;;;;;-2.24;75.01;97879.27;1807042;77;25758;-85
2020/12/22 00:22:57;;;;;;;101.80;45.15;;;;;;;-2.25;74.95;97878.91;1800191;77;25799;-85
2020/12/22 00:25:24;;;;;;;91.32;44.23;;;;;;;-2.29;74.95;97877.45;1809741;77;25729;-85
2020/12/22 00:27:51;;;;;;;95.20;43.00;;;;;;;-2.40;74.85;97869.04;1841077;77;27475;-85
2020/12/22 00:30:19;;;;;;;91.75;41.77;;;;;;;-2.42;75.02;97863.53;1846456;77;26324;-84
2020/12/22 00:32:46;;;;;;;85.20;38.55;;;;;;;-2.44;75.03;97866.78;1846529;77;25757;-85
2020/12/22 00:35:13;;;;;;;96.80;41.10;;;;;;;-2.50;75.09;97870.72;1826870;77;26841;-84
2020/12/22 00:37:41;;;;;;;87.33;40.28;;;;;;;-2.49;75.26;97864.95;1833757;77;25802;-84
2020/12/22 00:40:09;;;;;;;84.75;39.27;;;;;;;-2.47;75.31;97866.53;1846469;77;27552;-85
2020/12/22 00:42:36;;;;;;;77.27;35.65;;;;;;;-2.50;75.29;97861.95;1846394;77;26494;-85
2020/12/22 00:45:04;;;;;;;82.27;33.38;;;;;;;-2.48;75.35;97860.03;1834187;77;25351;-85
2020/12/22 00:47:31;;;;;;;78.55;35.45;;;;;;;-2.48;75.40;97866.16;1826566;76;26757;-84
2020/12/22 00:49:58;;;;;;;75.72;33.92;;;;;;;-2.50;75.42;97865.91;1846570;77;25757;-84
2020/12/22 00:52:26;;;;;;;71.57;32.73;;;;;;;-2.53;75.40;97859.06;1823052;77;28417;-85
2020/12/22 00:54:53;;;;;;;66.47;32.85;;;;;;;-2.52;75.49;97862.55;1837354;77;25708;-84
2020/12/22 00:57:20;;;;;;;72.37;33.05;;;;;;;-2.49;75.55;97862.31;1846607;77;25845;-84
2020/12/22 00:59:48;;;;;;;72.42;32.75;;;;;;;-2.48;75.60;97862.67;1846414;76;25988;-85
2020/12/22 01:02:15;;;;;;;74.12;32.50;;;;;;;-2.47;75.60;97858.59;1846399;77;25809;-84
2020/12/22 01:04:43;;;;;;;72.10;33.02;;;;;;;-2.43;75.55;97856.09;1843399;77;28720;-84
2020/12/22 01:07:10;;;;;;;63.35;30.80;;;;;;;-2.41;75.50;97845.36;1833624;77;25748;-85
2020/12/22 01:09:37;;;;;;;63.50;29.23;;;;;;;-2.42;75.50;97841.06;1828507;77;25692;-84
2020/12/22 01:12:06;;;;;;;62.23;28.25;;;;;;;-2.47;75.54;97837.45;1836632;77;26800;-85
2020/12/22 01:14:33;;;;;;;61.53;28.70;;;;;;;-2.56;75.62;97835.53;1826216;77;25695;-85
2020/12/22 01:17:01;;;;;;;69.58;29.35;;;;;;;-2.58;75.76;97831.69;1797246;77;27724;-85
2020/12/22 01:19:28;;;;;;;69.95;29.85;;;;;;;-2.60;75.81;97820.38;1810751;77;25786;-85
2020/12/22 01:21:56;;;;;;;67.95;29.80;;;;;;;-2.51;75.92;97828.55;1842646;77;25964;-85
2020/12/22 01:24:24;;;;;;;70.47;30.88;;;;;;;-2.46;75.97;97829.04;1836044;77;26800;-85
2020/12/22 01:26:53;;;;;;;64.53;29.55;;;;;;;-2.40;75.90;97833.34;1826927;77;25751;-85
2020/12/22 01:29:21;;;;;;;63.30;29.02;;;;;;;-2.39;75.82;97832.39;1835857;77;27495;-85
2020/12/22 01:31:49;;;;;;;66.60;28.85;;;;;;;-2.39;75.80;97828.91;1819888;77;26294;-85
2020/12/22 01:34:16;;;;;;;74.20;30.90;;;;;;;-2.38;75.73;97826.63;1826141;77;25769;-85
2020/12/22 01:36:43;;;;;;;79.95;31.55;;;;;;;-2.39;75.72;97817.85;1787158;77;25821;-85
2020/12/22 01:39:11;;;;;;;68.78;29.85;;;;;;;-2.39;75.65;97807.75;1787199;77;25714;-85
2020/12/22 01:41:38;;;;;;;65.03;28.62;;;;;;;-2.42;75.57;97798.77;1826259;77;27492;-85
2020/12/22 01:46:50;;;;;;;54.38;27.40;;;;;;;-2.45;75.77;97796.36;1845967;76;34808;-84
2020/12/22 01:49:24;;;;;;;67.08;30.27;;;;;;;-2.48;75.72;97800.55;1852251;77;25832;-84
2020/12/22 01:51:55;;;;;;;67.12;30.50;;;;;;;-2.49;75.74;97788.30;1852318;77;27553;-85
2020/12/22 01:54:23;;;;;;;60.75;27.87;;;;;;;-2.48;75.74;97786.02;1852231;77;25687;-83
2020/12/22 01:56:50;;;;;;;60.55;27.13;;;;;;;-2.46;75.79;97790.70;1852119;77;25717;-84
2020/12/22 01:59:18;;;;;;;63.65;29.80;;;;;;;-2.49;75.62;97783.02;1834791;77;26318;-84
2020/12/22 02:01:46;;;;;;;56.45;27.52;;;;;;;-2.52;75.54;97788.53;1839300;77;25882;-85
2020/12/22 02:04:15;;;;;;;58.13;26.75;;;;;;;-2.52;75.59;97791.17;1814831;77;27556;-86
2020/12/22 02:06:42;;;;;;;60.48;25.15;;;;;;;-2.52;75.60;97776.16;1828601;77;25331;-86
2020/12/22 02:09:11;;;;;;;49.25;23.30;;;;;;;-2.52;75.61;97776.64;1830714;77;26272;-84
2020/12/22 02:11:41;;;;;;;48.15;23.95;;;;;;;-2.61;75.68;97767.64;1835932;77;25756;-85
2020/12/22 02:14:11;;;;;;;46.15;23.02;;;;;;;-2.74;75.73;97765.13;1852248;76;25653;-85
2020/12/22 02:16:40;;;;;;;52.53;25.33;;;;;;;-2.80;75.90;97764.30;1852364;77;27579;-85
2020/12/22 02:19:08;;;;;;;57.75;25.68;;;;;;;-2.79;76.02;97744.84;1828437;77;25753;-85
2020/12/22 02:21:35;;;;;;;49.27;24.37;;;;;;;-2.80;75.99;97743.16;1832162;77;25769;-86
2020/12/22 02:24:02;;;;;;;43.08;22.27;;;;;;;-2.85;76.03;97751.91;1825490;77;25663;-84
2020/12/22 02:26:31;;;;;;;47.80;22.55;;;;;;;-2.88;76.30;97750.82;1852296;77;25665;-84
2020/12/22 02:28:58;;;;;;;45.35;22.48;;;;;;;-2.87;76.43;97745.06;1852261;77;27541;-85
2020/12/22 02:31:26;;;;;;;47.93;24.95;;;;;;;-2.91;76.45;97751.08;1828621;77;25777;-85
2020/12/22 02:33:54;;;;;;;44.63;22.17;;;;;;;-2.93;76.50;97731.86;1820207;77;25822;-85
2020/12/22 02:36:22;;;;;;;40.17;19.90;;;;;;;-2.91;76.50;97732.59;1822357;77;25712;-84
2020/12/22 02:38:50;;;;;;;47.30;22.90;;;;;;;-2.93;76.56;97725.26;1846787;77;25780;-85
2020/12/22 02:41:17;;;;;;;41.90;20.10;;;;;;;-2.93;76.67;97725.26;1851924;77;27549;-85
2020/12/22 02:43:45;;;;;;;42.78;20.85;;;;;;;-2.88;76.77;97720.44;1833670;76;25321;-85
2020/12/22 02:46:13;;;;;;;36.90;19.23;;;;;;;-2.83;76.93;97730.18;1781509;78;25963;-83
2020/12/22 02:48:40;;;;;;;41.68;19.27;;;;;;;-2.84;76.85;97720.57;1766548;79;25759;-83
2020/12/22 02:51:08;;;;;;;45.17;21.12;;;;;;;-2.87;76.87;97722.13;1767315;79;25810;-85
2020/12/22 02:53:36;;;;;;;39.27;19.73;;;;;;;-2.87;76.86;97718.64;1788799;78;27413;-84
2020/12/22 02:56:03;;;;;;;41.65;21.62;;;;;;;-2.88;76.90;97720.92;1788537;78;25745;-85
2020/12/22 02:58:31;;;;;;;39.60;19.98;;;;;;;-2.90;76.87;97707.34;1788027;78;25867;-85
2020/12/22 03:00:59;;;;;;;39.80;20.68;;;;;;;-2.87;76.99;97712.03;1788031;78;25831;-85
2020/12/22 03:03:27;;;;;;;45.12;22.17;;;;;;;-2.83;77.11;97709.05;1788045;78;25766;-85
2020/12/22 03:05:54;;;;;;;43.05;21.25;;;;;;;-2.76;77.27;97701.45;1788183;78;28466;-85
2020/12/22 03:08:22;;;;;;;40.05;19.48;;;;;;;-2.69;77.45;97697.39;1787943;78;25730;-85
2020/12/22 03:10:50;;;;;;;45.90;21.75;;;;;;;-2.56;77.61;97691.48;1788198;78;25799;-85
2020/12/22 03:13:18;;;;;;;44.48;23.02;;;;;;;-2.39;77.91;97691.42;1788055;78;25730;-86
2020/12/22 03:15:45;;;;;;;46.70;21.62;;;;;;;-2.31;77.94;97684.58;1788002;78;26213;-85
2020/12/22 03:18:13;;;;;;;41.65;21.00;;;;;;;-2.21;77.85;97689.95;1788135;78;27497;-86
2020/12/22 03:20:41;;;;;;;40.88;21.17;;;;;;;-2.17;77.70;97688.71;1788068;78;25729;-85
2020/12/22 03:23:08;;;;;;;46.30;22.62;;;;;;;-2.19;77.48;97678.77;1788059;78;26318;-85
2020/12/22 03:25:36;;;;;;;44.53;21.82;;;;;;;-2.23;77.27;97676.00;1787995;78;26308;-85
2020/12/22 03:28:04;;;;;;;45.98;22.62;;;;;;;-2.28;77.08;97675.53;1788182;78;25860;-85
2020/12/22 03:30:31;;;;;;;47.60;22.55;;;;;;;-2.34;76.93;97674.72;1788120;78;28541;-85
2020/12/22 03:32:59;;;;;;;47.33;20.97;;;;;;;-2.32;76.92;97684.70;1788001;78;26278;-84
2020/12/22 03:35:26;;;;;;;42.38;20.20;;;;;;;-2.35;76.88;97682.30;1788131;78;25741;-84
2020/12/22 03:37:54;;;;;;;42.45;19.90;;;;;;;-2.40;76.87;97679.17;1788047;78;25765;-84
2020/12/22 03:40:22;;;;;;;42.35;19.50;;;;;;;-2.45;76.96;97678.72;1788072;78;25888;-83
2020/12/22 03:42:49;;;;;;;40.58;20.77;;;;;;;-2.49;76.98;97665.38;1810961;78;27579;-85
2020/12/22 03:45:17;;;;;;;36.85;19.10;;;;;;;-2.52;77.04;97661.66;1786404;78;26066;-84
2020/12/22 03:47:45;;;;;;;35.60;17.85;;;;;;;-2.50;77.12;97654.45;1757077;80;25780;-85
2020/12/22 03:50:13;;;;;;;38.13;19.67;;;;;;;-2.48;77.25;97656.01;1753702;80;25791;-84
2020/12/22 03:52:40;;;;;;;47.88;20.43;;;;;;;-2.44;77.30;97646.04;1764737;79;25790;-85
2020/12/22 03:55:08;;;;;;;42.45;22.15;;;;;;;-2.44;77.34;97640.75;1760261;79;28454;-84
2020/12/22 03:57:36;;;;;;;42.95;19.75;;;;;;;-2.40;77.45;97628.94;1759789;79;26098;-85
2020/12/22 04:00:06;;;;;;;33.42;17.73;;;;;;;-2.37;77.47;97631.34;1756488;79;25399;-85
2020/12/22 04:02:35;;;;;;;33.88;17.35;;;;;;;-2.36;77.49;97629.89;1752105;78;25780;-85
2020/12/22 04:05:03;;;;;;;38.88;20.08;;;;;;;-2.32;77.52;97630.02;1759247;80;25790;-86
2020/12/22 04:07:31;;;;;;;40.67;20.05;;;;;;;-2.30;77.52;97637.82;1759577;80;28489;-85
2020/12/22 04:09:58;;;;;;;33.78;18.80;;;;;;;-2.22;77.59;97635.38;1759349;80;25723;-86
2020/12/22 04:12:26;;;;;;;35.15;18.17;;;;;;;-2.13;77.55;97635.09;1771737;78;25796;-85
2020/12/22 04:14:53;;;;;;;33.83;17.02;;;;;;;-2.11;77.51;97636.65;1768796;78;26150;-85
2020/12/22 04:17:21;;;;;;;35.38;18.00;;;;;;;-2.11;77.50;97635.33;1768759;80;25918;-85
2020/12/22 04:19:48;;;;;;;32.65;17.07;;;;;;;-2.11;77.56;97630.52;1759440;78;27550;-84
2020/12/22 04:22:15;;;;;;;34.65;17.73;;;;;;;-2.12;77.61;97631.00;1759348;78;26127;-85
2020/12/22 04:24:42;;;;;;;29.80;16.60;;;;;;;-2.08;77.77;97622.34;1776581;80;25779;-84
2020/12/22 04:27:10;;;;;;;33.38;17.32;;;;;;;-2.01;77.85;97624.33;1765963;78;25840;-86
2020/12/22 04:29:37;;;;;;;36.73;18.30;;;;;;;-1.96;77.88;97627.45;1772941;80;25704;-85
2020/12/22 04:32:04;;;;;;;35.17;19.02;;;;;;;-1.93;77.89;97624.52;1786869;80;27594;-85
2020/12/22 04:34:32;;;;;;;32.23;16.77;;;;;;;-1.88;77.90;97615.72;1778808;78;26256;-85
2020/12/22 04:36:59;;;;;;;35.50;19.15;;;;;;;-1.78;78.03;97613.14;1759549;80;25361;-86
2020/12/22 04:39:26;;;;;;;30.90;17.82;;;;;;;-1.67;78.05;97611.73;1757686;80;25982;-85
2020/12/22 04:41:58;;;;;;;35.80;18.77;;;;;;;-1.57;77.99;97618.44;1757303;80;25841;-86
2020/12/22 04:44:25;;;;;;;35.05;18.62;;;;;;;-1.51;77.88;97625.84;1763160;80;27506;-85
2020/12/22 04:46:54;;;;;;;32.93;18.55;;;;;;;-1.47;77.86;97614.87;1785657;79;25651;-86
2020/12/22 04:49:25;;;;;;;38.95;20.50;;;;;;;-1.48;77.75;97607.89;1784382;79;25802;-85
2020/12/22 04:51:53;;;;;;;44.45;22.42;;;;;;;-1.48;77.68;97611.87;1809449;77;25738;-85
2020/12/22 04:54:20;;;;;;;54.98;24.70;;;;;;;-1.40;77.74;97605.90;1809644;77;25315;-86
2020/12/22 04:56:48;;;;;;;46.92;24.25;;;;;;;-1.37;77.69;97580.97;1809549;77;27557;-86
2020/12/22 04:59:16;;;;;;;54.27;25.45;;;;;;;-1.34;77.62;97592.14;1809338;77;26258;-86
2020/12/22 05:01:43;;;;;;;48.73;23.20;;;;;;;-1.32;77.56;97583.55;1809424;77;25723;-85
2020/12/22 05:04:12;;;;;;;45.00;21.07;;;;;;;-1.31;77.49;97579.94;1804900;78;25833;-84
2020/12/22 05:06:40;;;;;;;45.45;21.23;;;;;;;-1.31;77.49;97584.39;1809369;77;25344;-85
2020/12/22 05:09:08;;;;;;;50.12;21.95;;;;;;;-1.30;77.54;97588.23;1809445;77;28599;-85
2020/12/22 05:11:36;;;;;;;40.75;21.27;;;;;;;-1.29;77.54;97589.92;1809396;77;25703;-84
2020/12/22 05:14:06;;;;;;;41.58;20.90;;;;;;;-1.30;77.53;97588.72;1809568;77;25708;-85
2020/12/22 05:16:37;;;;;;;36.85;20.17;;;;;;;-1.33;77.53;97585.87;1809415;77;26178;-86
2020/12/22 05:19:05;;;;;;;40.17;20.37;;;;;;;-1.33;77.53;97589.85;1813169;77;25793;-85
2020/12/22 05:21:40;;;;;;;43.45;20.52;;;;;;;-1.28;77.60;97574.87;1823381;77;27592;-85
2020/12/22 05:24:08;;;;;;;40.17;20.43;;;;;;;-1.29;77.58;97577.16;1816194;77;25726;-84
2020/12/22 05:26:40;;;;;;;40.90;21.17;;;;;;;-1.31;77.58;97574.64;1824322;77;25502;-85
2020/12/22 05:29:16;;;;;;;41.27;21.40;;;;;;;-1.31;77.92;97577.77;1810994;77;25767;-85
2020/12/22 05:31:49;;;;;;;45.35;21.65;;;;;;;-1.31;77.92;97577.77;1842637;77;26338;-86
2020/12/22 05:34:18;;;;;;;40.12;21.68;;;;;;;-1.29;77.62;97578.00;1809887;77;27475;-86
2020/12/22 05:36:47;;;;;;;39.30;19.65;;;;;;;-1.26;77.65;97571.12;1829385;77;26418;-85
2020/12/22 05:39:18;;;;;;;46.05;21.87;;;;;;;-1.31;77.61;97570.67;1819161;77;25922;-85
2020/12/22 05:41:46;;;;;;;43.20;20.40;;;;;;;-1.33;77.66;97574.45;1823491;77;25747;-84
2020/12/22 05:44:14;;;;;;;40.25;19.20;;;;;;;-1.31;77.77;97571.99;1809327;77;25890;-85
2020/12/22 05:46:42;;;;;;;35.78;19.10;;;;;;;-1.30;77.87;97572.83;1810266;77;28498;-86
2020/12/22 05:49:11;;;;;;;40.73;19.23;;;;;;;-1.26;77.93;97562.33;1772286;77;25852;-85
2020/12/22 05:51:41;;;;;;;37.17;19.05;;;;;;;-1.18;78.01;97555.38;1764084;78;25755;-85
2020/12/22 05:54:11;;;;;;;35.83;19.67;;;;;;;-1.17;78.00;97551.77;1804836;77;26488;-85
2020/12/22 05:56:38;;;;;;;35.65;20.00;;;;;;;-1.15;77.97;97547.17;1795714;77;25330;-86
2020/12/22 05:59:20;;;;;;;37.35;19.30;;;;;;;-1.10;78.02;97552.92;1774821;78;27626;-86
2020/12/22 06:01:48;;;;;;;43.83;20.60;;;;;;;-1.06;77.98;97555.27;1813500;78;25834;-85
2020/12/22 06:04:18;;;;;;;34.08;18.67;;;;;;;-1.02;77.99;97544.77;1815472;77;25726;-86
2020/12/22 06:06:47;;;;;;;39.15;20.62;;;;;;;-1.00;78.00;97540.17;1809516;78;26987;-86
2020/12/22 06:09:15;;;;;;;38.45;20.17;;;;;;;-0.96;78.09;97541.55;1790053;78;25857;-86
2020/12/22 06:11:42;;;;;;;41.25;20.88;;;;;;;-0.89;78.12;97545.36;1816330;77;27547;-86
2020/12/22 06:14:10;;;;;;;45.95;24.65;;;;;;;-0.81;78.14;97544.17;1818407;78;26173;-86
2020/12/22 06:16:37;;;;;;;47.53;25.90;;;;;;;-0.78;78.11;97540.77;1815760;77;25733;-86
2020/12/22 06:19:07;;;;;;;51.95;24.98;;;;;;;-0.70;78.11;97545.86;1764088;79;25760;-85
2020/12/22 06:21:37;;;;;;;39.13;21.05;;;;;;;-0.67;78.05;97550.41;1800051;78;25737;-86
2020/12/22 06:24:04;;;;;;;42.65;23.77;;;;;;;-0.61;78.11;97539.27;1818505;78;27422;-86
2020/12/22 06:26:31;;;;;;;45.33;23.98;;;;;;;-0.48;78.23;97539.80;1816657;78;25699;-85
2020/12/22 06:28:58;;;;;;;44.40;20.43;;;;;;;-0.43;78.19;97542.88;1815323;77;25761;-85
2020/12/22 06:31:31;;;;;;;41.77;20.75;;;;;;;-0.42;78.08;97538.42;1789198;77;26295;-86
2020/12/22 06:33:58;;;;;;;36.17;19.12;;;;;;;-0.41;77.98;97534.79;1810764;78;25787;-85
2020/12/22 06:36:26;;;;;;;34.40;18.48;;;;;;;-0.39;77.96;97541.64;1817304;77;27550;-85
2020/12/22 06:39:02;;;;;;;37.23;19.70;;;;;;;-0.34;78.00;97530.59;1746462;80;26350;-86
2020/12/22 06:41:41;;;;;;;40.95;20.90;;;;;;;-0.29;78.02;97523.06;1722971;81;25719;-86
2020/12/22 06:44:26;;;;;;;30.90;17.17;;;;;;;-0.21;78.06;97523.66;1760029;79;25731;-85
2020/12/22 06:46:59;;;;;;;38.85;19.15;;;;;;;-0.13;78.09;97515.86;1757931;80;25979;-86
2020/12/22 06:49:52;;;;;;;27.40;14.30;;;;;;;-0.02;78.17;97514.37;1809785;77;27533;-85
2020/12/22 06:52:38;;;;;;;26.00;14.47;;;;;;;0.03;78.07;97504.14;1809670;77;25788;-85
2020/12/22 06:55:09;;;;;;;25.95;14.18;;;;;;;0.22;78.20;97490.83;1809632;77;25714;-84
2020/12/22 06:57:51;;;;;;;42.20;21.70;;;;;;;0.34;78.14;97504.77;1833022;77;25697;-84
2020/12/22 07:00:35;;;;;;;42.35;22.30;;;;;;;0.42;78.05;97494.24;1809602;77;25831;-84
2020/12/22 07:03:17;;;;;;;39.08;20.05;;;;;;;0.49;77.86;97493.98;1809665;77;26999;-85
2020/12/22 07:05:48;;;;;;;43.48;23.25;;;;;;;0.58;77.88;97490.48;1818805;77;25841;-85
2020/12/22 07:08:18;;;;;;;34.63;19.50;;;;;;;0.70;77.82;97488.46;1814501;77;25837;-84
2020/12/22 07:10:50;;;;;;;36.33;18.82;;;;;;;0.78;77.75;97491.20;1809560;77;26523;-85
2020/12/22 07:13:19;;;;;;;28.17;13.40;;;;;;;0.79;77.54;97488.89;1815025;77;25755;-84
2020/12/22 07:15:53;;;;;;;23.42;11.95;;;;;;;0.89;77.63;97489.67;1830553;77;27472;-85
2020/12/22 07:18:30;;;;;;;19.32;11.25;;;;;;;1.02;77.60;97480.84;1825783;77;25748;-85
2020/12/22 07:20:59;;;;;;;25.40;12.98;;;;;;;1.17;77.53;97486.98;1842505;77;26414;-85
2020/12/22 07:23:27;;;;;;;31.55;14.90;;;;;;;1.29;77.41;97481.78;1813944;77;25521;-84
2020/12/22 07:25:58;;;;;;;22.73;13.45;;;;;;;1.35;77.22;97474.52;1809524;77;25885;-84
2020/12/22 07:28:25;;;;;;;19.90;11.15;;;;;;;1.42;77.13;97484.91;1809491;77;27705;-84
2020/12/22 07:30:52;;;;;;;25.05;13.48;;;;;;;1.50;77.04;97471.66;1809414;77;25829;-86
2020/12/22 07:33:21;;;;;;;20.85;11.60;;;;;;;1.60;76.91;97478.23;1822629;77;25775;-85
2020/12/22 07:35:51;;;;;;;27.15;15.28;;;;;;;1.67;76.77;97481.47;1812498;77;26647;-84
2020/12/22 07:38:19;;;;;;;24.05;13.95;;;;;;;1.73;76.59;97470.19;1815066;77;25707;-83
2020/12/22 07:40:46;;;;;;;24.25;12.50;;;;;;;1.78;76.49;97468.41;1831241;77;29241;-85
2020/12/22 07:43:14;;;;;;;27.80;14.33;;;;;;;1.85;76.44;97464.61;1827179;77;25825;-84
2020/12/22 07:45:50;;;;;;;25.17;13.90;;;;;;;1.94;76.49;97461.84;1827878;77;25729;-86
2020/12/22 07:48:19;;;;;;;24.43;13.22;;;;;;;1.98;76.30;97465.05;1836618;77;25926;-86
2020/12/22 07:50:54;;;;;;;25.37;15.23;;;;;;;2.03;76.20;97464.09;1821423;77;25807;-85
2020/12/22 07:53:22;;;;;;;30.72;16.25;;;;;;;2.11;76.12;97460.14;1848547;77;27499;-83
2020/12/22 07:55:49;;;;;;;49.20;24.55;;;;;;;2.18;75.99;97468.66;1827860;77;26438;-84
2020/12/22 07:58:18;;;;;;;52.70;27.73;;;;;;;2.21;75.78;97478.17;1845406;77;25887;-84
2020/12/22 08:00:46;;;;;;;52.10;24.80;;;;;;;2.13;75.58;97465.66;1821750;77;25805;-84
2020/12/22 08:03:16;;;;;;;25.40;14.40;;;;;;;2.11;75.62;97482.77;1848597;77;25985;-84
2020/12/22 08:06:01;;;;;;;22.02;12.55;;;;;;;2.17;75.65;97482.16;1829660;77;27468;-85
2020/12/22 08:08:34;;;;;;;20.68;11.20;;;;;;;2.29;75.67;97479.57;1821263;77;26383;-85
2020/12/22 08:11:01;;;;;;;18.45;10.88;;;;;;;2.44;75.67;97487.29;1820847;77;25679;-80
2020/12/22 08:13:37;;;;;;;17.95;10.00;;;;;;;2.59;75.57;97474.70;1803199;77;25814;-82
2020/12/22 08:16:06;;;;;;;16.52;10.18;;;;;;;2.71;75.52;97476.92;1833377;77;25776;-83
2020/12/22 08:18:36;;;;;;;21.82;12.23;;;;;;;2.87;75.36;97474.83;1849381;77;27505;-83
2020/12/22 08:21:04;;;;;;;16.25;9.95;;;;;;;3.01;75.10;97470.22;1843350;76;25813;-86
2020/12/22 08:23:33;;;;;;;19.35;11.08;;;;;;;3.13;74.99;97467.58;1843445;76;26446;-84
2020/12/22 08:26:01;;;;;;;22.27;11.68;;;;;;;3.24;74.75;97461.93;1843102;77;25681;-85
2020/12/22 08:28:29;;;;;;;19.12;12.03;;;;;;;3.34;74.52;97460.94;1831570;76;25769;-85
2020/12/22 08:31:14;;;;;;;16.97;11.35;;;;;;;3.38;74.38;97456.95;1855176;77;27697;-84
2020/12/22 08:33:42;;;;;;;18.82;10.72;;;;;;;3.40;74.20;97452.25;1823201;77;27783;-83
2020/12/22 08:36:13;;;;;;;19.75;11.15;;;;;;;3.43;74.08;97440.76;1847074;77;25856;-84
2020/12/22 08:38:40;;;;;;;17.70;10.65;;;;;;;3.46;73.90;97439.10;1819660;77;26682;-85
2020/12/22 08:41:22;;;;;;;19.50;11.00;;;;;;;3.49;73.81;97434.78;1840624;77;26304;-86
2020/12/22 08:43:53;;;;;;;22.87;12.65;;;;;;;3.54;73.70;97423.58;1852158;77;27674;-83
2020/12/22 08:46:21;;;;;;;28.50;13.90;;;;;;;3.53;73.64;97424.58;1831204;77;26102;-87
2020/12/22 08:48:50;;;;;;;18.32;10.40;;;;;;;3.52;73.67;97412.23;1794249;77;25733;-87
2020/12/22 08:51:28;;;;;;;15.15;9.85;;;;;;;3.57;73.64;97409.91;1831148;77;25726;-85
2020/12/22 08:53:56;;;;;;;17.40;10.93;;;;;;;3.59;73.60;97408.75;1829610;77;25716;-87
2020/12/22 08:56:25;;;;;;;15.95;10.35;;;;;;;3.61;73.51;97401.41;1823003;77;28489;-87
2020/12/22 08:58:57;;;;;;;15.72;10.50;;;;;;;3.67;73.58;97391.88;1801631;77;25744;-85
2020/12/22 09:01:45;;;;;;;16.60;10.72;;;;;;;3.70;73.45;97379.53;1834296;77;25687;-83
2020/12/22 09:04:15;;;;;;;14.85;9.55;;;;;;;3.76;73.35;97380.68;1837538;77;25755;-86
2020/12/22 09:06:51;;;;;;;16.87;10.08;;;;;;;3.79;73.22;97361.66;1830963;77;25721;-86
2020/12/22 09:09:30;;;;;;;18.60;11.00;;;;;;;3.81;73.10;97365.83;1832165;77;27700;-82
2020/12/22 09:12:10;;;;;;;22.50;11.88;;;;;;;3.87;73.08;97359.80;1839673;77;26108;-82
2020/12/22 09:14:44;;;;;;;20.70;11.90;;;;;;;3.95;73.01;97354.45;1844858;77;25764;-86
2020/12/22 09:17:13;;;;;;;19.80;12.10;;;;;;;3.99;72.79;97348.25;1841905;77;25733;-86
2020/12/22 09:19:51;;;;;;;19.62;11.08;;;;;;;3.98;72.72;97354.09;1842562;77;25745;-87
2020/12/22 09:22:25;;;;;;;20.17;12.30;;;;;;;4.00;72.60;97340.57;1813887;77;27499;-85
2020/12/22 09:24:54;;;;;;;21.77;11.50;;;;;;;4.06;72.51;97340.39;1819827;77;25803;-83
2020/12/22 09:27:42;;;;;;;22.00;13.30;;;;;;;4.09;72.47;97333.38;1828435;77;25682;-84
2020/12/22 09:30:15;;;;;;;19.42;11.70;;;;;;;4.09;72.34;97327.54;1830700;77;25731;-87
2020/12/22 09:32:47;;;;;;;18.55;10.65;;;;;;;4.07;72.20;97330.05;1817792;77;25734;-84
2020/12/22 09:35:14;;;;;;;20.60;12.15;;;;;;;4.08;72.21;97321.03;1824886;77;27502;-84
2020/12/22 09:37:42;;;;;;;18.00;11.53;;;;;;;4.13;72.31;97324.00;1824447;77;25828;-85
2020/12/22 09:40:11;;;;;;;19.95;11.78;;;;;;;4.13;72.19;97315.98;1829396;77;25793;-85
2020/12/22 09:42:39;;;;;;;20.60;12.18;;;;;;;4.17;72.20;97315.98;1817063;77;25686;-85
2020/12/22 09:45:06;;;;;;;17.95;12.07;;;;;;;4.20;72.21;97311.63;1810107;77;26159;-85
2020/12/22 09:47:34;;;;;;;17.67;11.35;;;;;;;4.22;72.12;97309.63;1834622;77;27670;-86
2020/12/22 09:50:01;;;;;;;20.90;12.73;;;;;;;4.27;72.11;97305.91;1811629;76;25727;-85
2020/12/22 09:52:29;;;;;;;20.27;12.10;;;;;;;4.25;71.93;97297.23;1842402;77;25772;-83
2020/12/22 09:54:57;;;;;;;20.92;11.60;;;;;;;4.25;71.91;97301.23;1812377;77;25810;-84
2020/12/22 09:57:24;;;;;;;17.17;10.90;;;;;;;4.26;71.82;97299.73;1838258;77;25799;-84
2020/12/22 09:59:51;;;;;;;17.67;11.25;;;;;;;4.29;71.76;97300.72;1842121;77;28228;-84
2020/12/22 10:02:19;;;;;;;19.67;12.05;;;;;;;4.31;71.64;97300.55;1818457;77;25721;-85
2020/12/22 10:04:46;;;;;;;19.70;12.15;;;;;;;4.34;71.54;97294.87;1842137;77;25756;-83
2020/12/22 10:07:14;;;;;;;21.73;13.75;;;;;;;4.33;71.47;97292.70;1818647;77;25755;-86
2020/12/22 10:09:41;;;;;;;25.45;16.77;;;;;;;4.34;71.61;97287.69;1818834;76;25714;-87
2020/12/22 10:12:09;;;;;;;25.55;15.40;;;;;;;4.27;71.51;97296.55;1842686;76;27483;-83
2020/12/22 10:14:36;;;;;;;20.57;12.43;;;;;;;4.27;71.60;97301.40;1813893;77;25799;-84
2020/12/22 10:17:03;;;;;;;19.50;11.22;;;;;;;4.26;71.60;97285.54;1844268;77;25864;-83
2020/12/22 10:19:31;;;;;;;18.17;11.53;;;;;;;4.27;71.61;97289.38;1819115;77;25724;-83
2020/12/22 10:21:58;;;;;;;17.75;10.93;;;;;;;4.29;71.67;97295.37;1837611;77;25819;-83
2020/12/22 10:24:26;;;;;;;21.33;12.85;;;;;;;4.30;71.84;97297.05;1801867;77;27746;-84
2020/12/22 10:26:53;;;;;;;19.60;12.40;;;;;;;4.28;71.84;97285.70;1811232;77;25753;-85
2020/12/22 10:29:20;;;;;;;20.40;11.73;;;;;;;4.27;71.83;97285.87;1835459;77;25822;-85
2020/12/22 10:31:48;;;;;;;18.20;11.60;;;;;;;4.27;71.97;97280.52;1818647;77;26456;-86
2020/12/22 10:34:15;;;;;;;18.65;11.93;;;;;;;4.35;72.01;97272.45;1825944;77;25738;-85
2020/12/22 10:36:46;;;;;;;21.87;12.80;;;;;;;4.37;71.93;97274.45;1823184;77;27485;-84
2020/12/22 10:39:14;;;;;;;79.92;37.35;;;;;;;4.37;71.92;97265.09;1818656;77;25798;-87
2020/12/22 10:41:41;;;;;;;56.05;28.17;;;;;;;4.34;71.88;97269.48;1841743;77;25712;-84
2020/12/22 10:44:09;;;;;;;21.80;12.43;;;;;;;4.34;71.96;97264.14;1818681;77;26453;-85
2020/12/22 10:46:36;;;;;;;16.30;10.20;;;;;;;4.33;71.98;97261.13;1808434;77;25738;-84
2020/12/22 10:49:03;;;;;;;122.45;85.92;;;;;;;4.38;72.06;97264.09;1818836;77;28347;-85
2020/12/22 10:51:31;;;;;;;112.77;71.57;;;;;;;4.42;72.12;97261.91;1821236;77;25812;-84
2020/12/22 10:54:00;;;;;;;30.27;18.17;;;;;;;4.44;72.16;97257.23;1845219;77;26273;-84
2020/12/22 10:56:27;;;;;;;23.65;13.30;;;;;;;4.47;72.05;97244.86;1821594;77;25722;-86
2020/12/22 10:58:55;;;;;;;22.87;12.65;;;;;;;4.46;71.88;97239.17;1835883;77;25833;-85
2020/12/22 11:01:23;;;;;;;24.35;13.78;;;;;;;4.49;71.93;97251.66;1830234;77;27702;-84
2020/12/22 11:03:51;;;;;;;22.02;12.28;;;;;;;4.50;71.94;97247.15;1821520;77;26370;-86
2020/12/22 11:06:36;;;;;;;23.50;12.33;;;;;;;4.55;71.94;97248.30;1821604;77;25782;-87
2020/12/22 11:08:59;;;;;;;23.85;14.65;;;;;;;4.52;71.90;97245.97;1821460;77;25513;-85
2020/12/22 11:11:26;;;;;;;26.23;14.98;;;;;;;4.52;71.96;97249.14;1844557;77;25757;-86
2020/12/22 11:13:53;;;;;;;35.68;16.55;;;;;;;4.49;72.04;97243.64;1821425;77;28691;-85
2020/12/22 11:16:28;;;;;;;20.12;12.20;;;;;;;4.47;72.11;97229.62;1829696;78;25947;-85
2020/12/22 11:18:56;;;;;;;20.75;11.65;;;;;;;4.44;72.20;97220.64;1825801;77;25666;-85
2020/12/22 11:21:24;;;;;;;19.45;11.70;;;;;;;4.40;72.28;97213.98;1850260;76;26397;-84
2020/12/22 11:23:52;;;;;;;52.98;20.68;;;;;;;4.34;72.25;97206.69;1836450;77;25798;-86
2020/12/22 11:26:22;;;;;;;36.28;17.35;;;;;;;4.35;72.41;97204.31;1849509;76;28640;-87
2020/12/22 11:28:53;;;;;;;22.52;12.47;;;;;;;4.34;72.53;97192.81;1850466;77;25772;-85
2020/12/22 11:31:21;;;;;;;19.23;11.57;;;;;;;4.31;72.62;97188.33;1842950;76;25770;-84